sensor_id;sensor_type;location;lat;lon;timestamp;P1;durP1;ratioP1;P2;durP2;ratioP2
14078;SDS011;7115;50.150;8.568;2023-05-02T00:00:50;3.53;;;2.23;;
14078;SDS011;7115;50.150;8.568;2023-05-02T00:03:18;4.03;;;2.13;;
14078;SDS011;7115;50.150;8.568;2023-05-02T00:05:45;4.27;;;2.03;;
14078;SDS011;7115;50.150;8.568;2023-05-02T00:08:12;3.00;;;2.70;;
14078;SDS011;7115;50.150;8.568;2023-05-02T00:10:39;2.97;;;2.27;;
14078;SDS011;7115;50.150;8.568;2023-05-02T00:13:06;2.97;;;2.47;;
14078;SDS011;7115;50.150;8.568;2023-05-02T00:15:33;2.50;;;2.30;;
14078;SDS011;7115;50.150;8.568;2023-05-02T00:18:00;5.00;;;2.47;;
14078;SDS011;7115;50.150;8.568;2023-05-02T00:20:28;3.40;;;2.60;;
14078;SDS011;7115;50.150;8.568;2023-05-02T00:22:55;3.10;;;2.40;;
14078;SDS011;7115;50.150;8.568;2023-05-02T00:25:24;2.83;;;2.53;;
14078;SDS011;7115;50.150;8.568;2023-05-02T00:27:51;3.00;;;2.63;;
14078;SDS011;7115;50.150;8.568;2023-05-02T00:30:18;2.67;;;2.43;;
14078;SDS011;7115;50.150;8.568;2023-05-02T00:32:46;2.43;;;2.23;;
14078;SDS011;7115;50.150;8.568;2023-05-02T00:35:13;6.03;;;2.60;;
14078;SDS011;7115;50.150;8.568;2023-05-02T00:37:41;5.17;;;2.90;;
14078;SDS011;7115;50.150;8.568;2023-05-02T00:40:08;3.80;;;2.73;;
14078;SDS011;7115;50.150;8.568;2023-05-02T00:42:36;5.73;;;3.10;;
14078;SDS011;7115;50.150;8.568;2023-05-02T00:45:04;6.20;;;2.77;;
14078;SDS011;7115;50.150;8.568;2023-05-02T00:47:32;3.50;;;2.87;;
14078;SDS011;7115;50.150;8.568;2023-05-02T00:49:59;4.47;;;3.20;;
14078;SDS011;7115;50.150;8.568;2023-05-02T00:52:27;3.87;;;2.87;;
14078;SDS011;7115;50.150;8.568;2023-05-02T00:54:55;3.37;;;2.93;;
14078;SDS011;7115;50.150;8.568;2023-05-02T00:57:23;3.53;;;2.80;;
14078;SDS011;7115;50.150;8.568;2023-05-02T00:59:50;5.07;;;2.93;;
14078;SDS011;7115;50.150;8.568;2023-05-02T01:02:21;4.80;;;2.93;;
14078;SDS011;7115;50.150;8.568;2023-05-02T01:04:59;3.63;;;3.10;;
14078;SDS011;7115;50.150;8.568;2023-05-02T01:07:36;4.80;;;2.90;;
14078;SDS011;7115;50.150;8.568;2023-05-02T01:10:16;4.43;;;3.70;;
14078;SDS011;7115;50.150;8.568;2023-05-02T01:12:51;5.80;;;4.00;;
14078;SDS011;7115;50.150;8.568;2023-05-02T01:15:24;4.93;;;3.67;;
14078;SDS011;7115;50.150;8.568;2023-05-02T01:17:52;4.80;;;3.53;;
14078;SDS011;7115;50.150;8.568;2023-05-02T01:20:22;4.23;;;3.30;;
14078;SDS011;7115;50.150;8.568;2023-05-02T01:22:53;6.07;;;4.67;;
14078;SDS011;7115;50.150;8.568;2023-05-02T01:25:28;5.40;;;3.93;;
14078;SDS011;7115;50.150;8.568;2023-05-02T01:28:01;5.03;;;3.90;;
14078;SDS011;7115;50.150;8.568;2023-05-02T01:30:41;5.63;;;3.83;;
14078;SDS011;7115;50.150;8.568;2023-05-02T01:33:12;5.60;;;4.27;;
14078;SDS011;7115;50.150;8.568;2023-05-02T01:35:42;6.73;;;3.83;;
14078;SDS011;7115;50.150;8.568;2023-05-02T01:38:12;6.60;;;3.87;;
14078;SDS011;7115;50.150;8.568;2023-05-02T01:40:41;5.83;;;3.93;;
14078;SDS011;7115;50.150;8.568;2023-05-02T01:43:10;5.67;;;4.57;;
14078;SDS011;7115;50.150;8.568;2023-05-02T01:45:43;5.83;;;4.43;;
14078;SDS011;7115;50.150;8.568;2023-05-02T01:48:12;5.70;;;4.67;;
14078;SDS011;7115;50.150;8.568;2023-05-02T01:50:42;8.70;;;6.87;;
14078;SDS011;7115;50.150;8.568;2023-05-02T01:53:10;9.53;;;7.50;;
14078;SDS011;7115;50.150;8.568;2023-05-02T01:55:40;10.53;;;7.20;;
14078;SDS011;7115;50.150;8.568;2023-05-02T01:58:09;11.00;;;7.33;;
14078;SDS011;7115;50.150;8.568;2023-05-02T02:00:37;12.80;;;6.87;;
14078;SDS011;7115;50.150;8.568;2023-05-02T02:03:06;10.03;;;7.23;;
14078;SDS011;7115;50.150;8.568;2023-05-02T02:05:35;9.43;;;6.37;;
14078;SDS011;7115;50.150;8.568;2023-05-02T02:08:04;9.70;;;6.50;;
14078;SDS011;7115;50.150;8.568;2023-05-02T02:10:34;9.47;;;7.70;;
14078;SDS011;7115;50.150;8.568;2023-05-02T02:13:06;8.40;;;6.53;;
14078;SDS011;7115;50.150;8.568;2023-05-02T02:15:42;10.10;;;6.60;;
14078;SDS011;7115;50.150;8.568;2023-05-02T02:18:17;10.90;;;7.80;;
14078;SDS011;7115;50.150;8.568;2023-05-02T02:20:47;8.07;;;6.80;;
14078;SDS011;7115;50.150;8.568;2023-05-02T02:23:15;9.90;;;8.03;;
14078;SDS011;7115;50.150;8.568;2023-05-02T02:25:44;12.17;;;8.20;;
14078;SDS011;7115;50.150;8.568;2023-05-02T02:28:12;12.60;;;8.43;;
14078;SDS011;7115;50.150;8.568;2023-05-02T02:30:39;21.13;;;11.60;;
14078;SDS011;7115;50.150;8.568;2023-05-02T02:33:06;17.20;;;11.70;;
14078;SDS011;7115;50.150;8.568;2023-05-02T02:35:34;16.27;;;11.83;;
14078;SDS011;7115;50.150;8.568;2023-05-02T02:38:08;17.83;;;12.40;;
14078;SDS011;7115;50.150;8.568;2023-05-02T02:40:41;15.50;;;12.03;;
14078;SDS011;7115;50.150;8.568;2023-05-02T02:43:14;17.53;;;11.20;;
14078;SDS011;7115;50.150;8.568;2023-05-02T02:45:51;15.67;;;11.70;;
14078;SDS011;7115;50.150;8.568;2023-05-02T02:48:24;17.50;;;12.10;;
14078;SDS011;7115;50.150;8.568;2023-05-02T02:51:05;21.17;;;14.53;;
14078;SDS011;7115;50.150;8.568;2023-05-02T02:53:38;18.20;;;13.77;;
14078;SDS011;7115;50.150;8.568;2023-05-02T02:56:19;15.80;;;12.60;;
14078;SDS011;7115;50.150;8.568;2023-05-02T02:58:54;16.20;;;11.87;;
14078;SDS011;7115;50.150;8.568;2023-05-02T03:01:25;21.23;;;14.10;;
14078;SDS011;7115;50.150;8.568;2023-05-02T03:03:56;17.30;;;12.90;;
14078;SDS011;7115;50.150;8.568;2023-05-02T03:06:25;17.30;;;13.23;;
14078;SDS011;7115;50.150;8.568;2023-05-02T03:08:52;18.87;;;13.40;;
14078;SDS011;7115;50.150;8.568;2023-05-02T03:11:19;18.93;;;14.23;;
14078;SDS011;7115;50.150;8.568;2023-05-02T03:13:46;18.23;;;13.83;;
14078;SDS011;7115;50.150;8.568;2023-05-02T03:19:03;18.87;;;13.97;;
14078;SDS011;7115;50.150;8.568;2023-05-02T03:21:32;25.17;;;13.93;;
14078;SDS011;7115;50.150;8.568;2023-05-02T03:24:01;21.00;;;15.47;;
14078;SDS011;7115;50.150;8.568;2023-05-02T03:26:29;23.93;;;15.93;;
14078;SDS011;7115;50.150;8.568;2023-05-02T03:28:56;19.77;;;14.83;;
14078;SDS011;7115;50.150;8.568;2023-05-02T03:31:22;22.03;;;15.20;;
14078;SDS011;7115;50.150;8.568;2023-05-02T03:33:52;20.90;;;15.37;;
14078;SDS011;7115;50.150;8.568;2023-05-02T03:36:19;22.63;;;16.57;;
14078;SDS011;7115;50.150;8.568;2023-05-02T03:38:47;21.60;;;15.60;;
14078;SDS011;7115;50.150;8.568;2023-05-02T03:41:14;22.97;;;16.97;;
14078;SDS011;7115;50.150;8.568;2023-05-02T03:43:41;24.60;;;16.80;;
14078;SDS011;7115;50.150;8.568;2023-05-02T03:46:08;24.33;;;17.73;;
14078;SDS011;7115;50.150;8.568;2023-05-02T03:48:37;23.13;;;16.50;;
14078;SDS011;7115;50.150;8.568;2023-05-02T03:51:04;22.87;;;15.83;;
14078;SDS011;7115;50.150;8.568;2023-05-02T03:53:33;22.00;;;16.73;;
14078;SDS011;7115;50.150;8.568;2023-05-02T03:56:02;23.63;;;17.70;;
14078;SDS011;7115;50.150;8.568;2023-05-02T03:58:29;23.33;;;17.30;;
14078;SDS011;7115;50.150;8.568;2023-05-02T04:00:56;21.83;;;17.03;;
14078;SDS011;7115;50.150;8.568;2023-05-02T04:03:23;22.90;;;17.03;;
14078;SDS011;7115;50.150;8.568;2023-05-02T04:05:53;19.43;;;15.43;;
14078;SDS011;7115;50.150;8.568;2023-05-02T04:08:20;23.47;;;15.90;;
14078;SDS011;7115;50.150;8.568;2023-05-02T04:10:47;22.53;;;16.83;;
14078;SDS011;7115;50.150;8.568;2023-05-02T04:13:17;21.23;;;16.67;;
14078;SDS011;7115;50.150;8.568;2023-05-02T04:15:44;24.73;;;17.63;;
14078;SDS011;7115;50.150;8.568;2023-05-02T04:18:12;24.43;;;16.53;;
14078;SDS011;7115;50.150;8.568;2023-05-02T04:20:39;24.77;;;17.73;;
14078;SDS011;7115;50.150;8.568;2023-05-02T04:23:08;22.70;;;17.23;;
14078;SDS011;7115;50.150;8.568;2023-05-02T04:25:35;21.57;;;16.90;;
14078;SDS011;7115;50.150;8.568;2023-05-02T04:28:02;23.93;;;15.77;;
14078;SDS011;7115;50.150;8.568;2023-05-02T04:30:31;20.80;;;16.07;;
14078;SDS011;7115;50.150;8.568;2023-05-02T04:32:58;25.67;;;16.80;;
14078;SDS011;7115;50.150;8.568;2023-05-02T04:35:25;24.17;;;15.80;;
14078;SDS011;7115;50.150;8.568;2023-05-02T04:37:52;23.67;;;16.70;;
14078;SDS011;7115;50.150;8.568;2023-05-02T04:40:19;22.40;;;15.47;;
14078;SDS011;7115;50.150;8.568;2023-05-02T04:42:46;21.67;;;15.97;;
14078;SDS011;7115;50.150;8.568;2023-05-02T04:45:13;24.00;;;16.57;;
14078;SDS011;7115;50.150;8.568;2023-05-02T04:47:41;21.27;;;16.17;;
14078;SDS011;7115;50.150;8.568;2023-05-02T04:50:08;23.53;;;16.73;;
14078;SDS011;7115;50.150;8.568;2023-05-02T04:52:35;20.57;;;15.67;;
14078;SDS011;7115;50.150;8.568;2023-05-02T04:55:03;28.93;;;18.80;;
14078;SDS011;7115;50.150;8.568;2023-05-02T04:57:30;28.20;;;20.53;;
14078;SDS011;7115;50.150;8.568;2023-05-02T04:59:57;34.50;;;22.80;;
14078;SDS011;7115;50.150;8.568;2023-05-02T05:02:24;29.57;;;21.07;;
14078;SDS011;7115;50.150;8.568;2023-05-02T05:04:53;30.97;;;21.80;;
14078;SDS011;7115;50.150;8.568;2023-05-02T05:07:20;29.57;;;20.47;;
14078;SDS011;7115;50.150;8.568;2023-05-02T05:09:47;29.13;;;19.80;;
14078;SDS011;7115;50.150;8.568;2023-05-02T05:12:17;26.43;;;19.23;;
14078;SDS011;7115;50.150;8.568;2023-05-02T05:14:44;29.43;;;20.97;;
14078;SDS011;7115;50.150;8.568;2023-05-02T05:17:11;30.67;;;21.60;;
14078;SDS011;7115;50.150;8.568;2023-05-02T05:19:38;34.67;;;21.30;;
14078;SDS011;7115;50.150;8.568;2023-05-02T05:22:06;30.23;;;22.63;;
14078;SDS011;7115;50.150;8.568;2023-05-02T05:24:33;30.07;;;21.80;;
14078;SDS011;7115;50.150;8.568;2023-05-02T05:27:01;31.27;;;22.43;;
14078;SDS011;7115;50.150;8.568;2023-05-02T05:29:29;29.07;;;20.17;;
14078;SDS011;7115;50.150;8.568;2023-05-02T05:31:56;30.33;;;21.50;;
14078;SDS011;7115;50.150;8.568;2023-05-02T05:34:23;30.90;;;21.20;;
14078;SDS011;7115;50.150;8.568;2023-05-02T05:36:50;31.83;;;21.17;;
14078;SDS011;7115;50.150;8.568;2023-05-02T05:39:19;32.87;;;21.63;;
14078;SDS011;7115;50.150;8.568;2023-05-02T05:41:46;30.13;;;20.67;;
14078;SDS011;7115;50.150;8.568;2023-05-02T05:44:12;29.50;;;19.47;;
14078;SDS011;7115;50.150;8.568;2023-05-02T05:46:39;31.20;;;20.37;;
14078;SDS011;7115;50.150;8.568;2023-05-02T05:49:06;29.97;;;20.30;;
14078;SDS011;7115;50.150;8.568;2023-05-02T05:51:34;38.07;;;20.50;;
14078;SDS011;7115;50.150;8.568;2023-05-02T05:54:00;32.63;;;21.07;;
14078;SDS011;7115;50.150;8.568;2023-05-02T05:56:29;36.87;;;21.47;;
14078;SDS011;7115;50.150;8.568;2023-05-02T05:58:56;27.77;;;19.23;;
14078;SDS011;7115;50.150;8.568;2023-05-02T06:01:22;30.90;;;21.30;;
14078;SDS011;7115;50.150;8.568;2023-05-02T06:03:49;27.23;;;17.77;;
14078;SDS011;7115;50.150;8.568;2023-05-02T06:06:17;27.20;;;18.20;;
14078;SDS011;7115;50.150;8.568;2023-05-02T06:08:44;27.53;;;17.93;;
14078;SDS011;7115;50.150;8.568;2023-05-02T06:11:11;27.33;;;19.23;;
14078;SDS011;7115;50.150;8.568;2023-05-02T06:13:39;26.30;;;16.67;;
14078;SDS011;7115;50.150;8.568;2023-05-02T06:16:06;20.83;;;15.03;;
14078;SDS011;7115;50.150;8.568;2023-05-02T06:18:33;24.60;;;15.53;;
14078;SDS011;7115;50.150;8.568;2023-05-02T06:21:03;22.93;;;15.00;;
14078;SDS011;7115;50.150;8.568;2023-05-02T06:23:30;30.10;;;17.87;;
14078;SDS011;7115;50.150;8.568;2023-05-02T06:25:58;25.63;;;16.73;;
14078;SDS011;7115;50.150;8.568;2023-05-02T06:28:26;23.97;;;15.90;;
14078;SDS011;7115;50.150;8.568;2023-05-02T06:30:58;25.63;;;17.30;;
14078;SDS011;7115;50.150;8.568;2023-05-02T06:33:26;23.10;;;15.63;;
14078;SDS011;7115;50.150;8.568;2023-05-02T06:35:53;23.60;;;15.37;;
14078;SDS011;7115;50.150;8.568;2023-05-02T06:38:20;21.33;;;15.10;;
14078;SDS011;7115;50.150;8.568;2023-05-02T06:40:48;22.97;;;15.60;;
14078;SDS011;7115;50.150;8.568;2023-05-02T06:43:16;26.83;;;18.37;;
14078;SDS011;7115;50.150;8.568;2023-05-02T06:45:43;26.70;;;17.63;;
14078;SDS011;7115;50.150;8.568;2023-05-02T06:48:12;27.10;;;18.37;;
14078;SDS011;7115;50.150;8.568;2023-05-02T06:50:39;27.40;;;17.27;;
14078;SDS011;7115;50.150;8.568;2023-05-02T06:53:06;25.40;;;17.50;;
14078;SDS011;7115;50.150;8.568;2023-05-02T06:55:33;27.47;;;18.20;;
14078;SDS011;7115;50.150;8.568;2023-05-02T06:58:00;24.93;;;16.53;;
14078;SDS011;7115;50.150;8.568;2023-05-02T07:00:28;27.53;;;17.07;;
14078;SDS011;7115;50.150;8.568;2023-05-02T07:02:55;25.27;;;18.00;;
14078;SDS011;7115;50.150;8.568;2023-05-02T07:05:23;26.73;;;17.97;;
14078;SDS011;7115;50.150;8.568;2023-05-02T07:07:50;38.60;;;25.13;;
14078;SDS011;7115;50.150;8.568;2023-05-02T07:10:17;22.70;;;15.23;;
14078;SDS011;7115;50.150;8.568;2023-05-02T07:12:44;23.03;;;15.93;;
14078;SDS011;7115;50.150;8.568;2023-05-02T07:15:11;23.97;;;15.20;;
14078;SDS011;7115;50.150;8.568;2023-05-02T07:17:39;22.47;;;15.77;;
14078;SDS011;7115;50.150;8.568;2023-05-02T07:20:06;23.03;;;15.53;;
14078;SDS011;7115;50.150;8.568;2023-05-02T07:22:37;20.63;;;14.60;;
14078;SDS011;7115;50.150;8.568;2023-05-02T07:25:04;20.80;;;14.90;;
14078;SDS011;7115;50.150;8.568;2023-05-02T07:27:31;21.03;;;14.87;;
14078;SDS011;7115;50.150;8.568;2023-05-02T07:29:58;20.03;;;13.50;;
14078;SDS011;7115;50.150;8.568;2023-05-02T07:32:27;20.10;;;13.77;;
14078;SDS011;7115;50.150;8.568;2023-05-02T07:34:54;21.13;;;14.87;;
14078;SDS011;7115;50.150;8.568;2023-05-02T07:37:23;20.90;;;13.83;;
14078;SDS011;7115;50.150;8.568;2023-05-02T07:39:52;17.27;;;12.67;;
14078;SDS011;7115;50.150;8.568;2023-05-02T07:42:18;21.47;;;13.60;;
14078;SDS011;7115;50.150;8.568;2023-05-02T07:44:45;19.37;;;13.20;;
14078;SDS011;7115;50.150;8.568;2023-05-02T07:47:12;18.30;;;12.37;;
14078;SDS011;7115;50.150;8.568;2023-05-02T07:49:39;19.17;;;12.20;;
14078;SDS011;7115;50.150;8.568;2023-05-02T07:52:06;19.50;;;12.07;;
14078;SDS011;7115;50.150;8.568;2023-05-02T07:54:33;17.77;;;12.43;;
14078;SDS011;7115;50.150;8.568;2023-05-02T07:57:02;18.90;;;11.53;;
14078;SDS011;7115;50.150;8.568;2023-05-02T07:59:30;17.33;;;10.70;;
14078;SDS011;7115;50.150;8.568;2023-05-02T08:01:57;19.87;;;11.00;;
14078;SDS011;7115;50.150;8.568;2023-05-02T08:04:24;21.27;;;11.73;;
14078;SDS011;7115;50.150;8.568;2023-05-02T08:06:51;18.47;;;11.20;;
14078;SDS011;7115;50.150;8.568;2023-05-02T08:09:18;16.87;;;10.50;;
14078;SDS011;7115;50.150;8.568;2023-05-02T08:11:45;17.80;;;10.63;;
14078;SDS011;7115;50.150;8.568;2023-05-02T08:14:13;17.27;;;9.93;;
14078;SDS011;7115;50.150;8.568;2023-05-02T08:16:41;16.00;;;10.10;;
14078;SDS011;7115;50.150;8.568;2023-05-02T08:19:11;15.90;;;9.30;;
14078;SDS011;7115;50.150;8.568;2023-05-02T08:21:38;18.63;;;12.07;;
14078;SDS011;7115;50.150;8.568;2023-05-02T08:24:05;17.53;;;11.40;;
14078;SDS011;7115;50.150;8.568;2023-05-02T08:26:33;16.37;;;11.37;;
14078;SDS011;7115;50.150;8.568;2023-05-02T08:29:00;18.07;;;10.97;;
14078;SDS011;7115;50.150;8.568;2023-05-02T08:31:29;16.20;;;10.17;;
14078;SDS011;7115;50.150;8.568;2023-05-02T08:33:56;19.17;;;12.07;;
14078;SDS011;7115;50.150;8.568;2023-05-02T08:36:24;20.83;;;11.37;;
14078;SDS011;7115;50.150;8.568;2023-05-02T08:38:51;22.07;;;13.53;;
14078;SDS011;7115;50.150;8.568;2023-05-02T08:41:18;21.13;;;13.40;;
14078;SDS011;7115;50.150;8.568;2023-05-02T08:43:45;21.27;;;13.07;;
14078;SDS011;7115;50.150;8.568;2023-05-02T08:46:13;23.00;;;13.13;;
14078;SDS011;7115;50.150;8.568;2023-05-02T08:48:43;19.40;;;11.73;;
14078;SDS011;7115;50.150;8.568;2023-05-02T08:51:14;20.70;;;12.80;;
14078;SDS011;7115;50.150;8.568;2023-05-02T08:53:42;21.80;;;13.30;;
14078;SDS011;7115;50.150;8.568;2023-05-02T08:56:10;24.70;;;11.80;;
14078;SDS011;7115;50.150;8.568;2023-05-02T08:58:38;21.53;;;12.37;;
14078;SDS011;7115;50.150;8.568;2023-05-02T09:01:09;20.27;;;12.25;;
14078;SDS011;7115;50.150;8.568;2023-05-02T09:03:38;19.03;;;12.13;;
14078;SDS011;7115;50.150;8.568;2023-05-02T09:06:08;20.20;;;12.63;;
14078;SDS011;7115;50.150;8.568;2023-05-02T09:08:38;21.90;;;11.67;;
14078;SDS011;7115;50.150;8.568;2023-05-02T09:11:06;23.07;;;12.57;;
14078;SDS011;7115;50.150;8.568;2023-05-02T09:13:34;21.83;;;11.23;;
14078;SDS011;7115;50.150;8.568;2023-05-02T09:16:03;20.73;;;11.67;;
14078;SDS011;7115;50.150;8.568;2023-05-02T09:18:32;20.37;;;11.57;;
14078;SDS011;7115;50.150;8.568;2023-05-02T09:21:00;20.57;;;10.97;;
14078;SDS011;7115;50.150;8.568;2023-05-02T09:23:36;16.23;;;10.43;;
14078;SDS011;7115;50.150;8.568;2023-05-02T09:26:11;11.60;;;6.87;;
14078;SDS011;7115;50.150;8.568;2023-05-02T09:28:40;11.93;;;6.97;;
14078;SDS011;7115;50.150;8.568;2023-05-02T09:31:09;11.67;;;7.23;;
14078;SDS011;7115;50.150;8.568;2023-05-02T09:33:38;14.77;;;7.23;;
14078;SDS011;7115;50.150;8.568;2023-05-02T09:36:06;10.90;;;6.80;;
14078;SDS011;7115;50.150;8.568;2023-05-02T09:38:36;10.97;;;6.70;;
14078;SDS011;7115;50.150;8.568;2023-05-02T09:41:04;10.07;;;5.93;;
14078;SDS011;7115;50.150;8.568;2023-05-02T09:43:31;8.53;;;5.67;;
14078;SDS011;7115;50.150;8.568;2023-05-02T09:45:58;9.17;;;5.60;;
14078;SDS011;7115;50.150;8.568;2023-05-02T09:48:27;8.40;;;5.60;;
14078;SDS011;7115;50.150;8.568;2023-05-02T09:50:56;9.03;;;5.87;;
14078;SDS011;7115;50.150;8.568;2023-05-02T09:53:23;9.77;;;5.67;;
14078;SDS011;7115;50.150;8.568;2023-05-02T09:55:59;11.20;;;5.40;;
14078;SDS011;7115;50.150;8.568;2023-05-02T09:58:28;10.53;;;5.33;;
14078;SDS011;7115;50.150;8.568;2023-05-02T10:00:56;7.90;;;5.20;;
14078;SDS011;7115;50.150;8.568;2023-05-02T10:03:24;8.57;;;5.10;;
14078;SDS011;7115;50.150;8.568;2023-05-02T10:05:53;7.27;;;4.70;;
14078;SDS011;7115;50.150;8.568;2023-05-02T10:08:21;7.07;;;4.20;;
14078;SDS011;7115;50.150;8.568;2023-05-02T10:10:51;6.37;;;4.40;;
14078;SDS011;7115;50.150;8.568;2023-05-02T10:13:22;7.33;;;4.23;;
14078;SDS011;7115;50.150;8.568;2023-05-02T10:15:57;6.77;;;4.30;;
14078;SDS011;7115;50.150;8.568;2023-05-02T10:18:28;8.00;;;5.27;;
14078;SDS011;7115;50.150;8.568;2023-05-02T10:20:59;8.43;;;5.30;;
14078;SDS011;7115;50.150;8.568;2023-05-02T10:23:30;6.10;;;4.10;;
14078;SDS011;7115;50.150;8.568;2023-05-02T10:25:59;6.30;;;4.20;;
14078;SDS011;7115;50.150;8.568;2023-05-02T10:28:28;5.77;;;4.00;;
14078;SDS011;7115;50.150;8.568;2023-05-02T10:30:55;5.53;;;4.40;;
14078;SDS011;7115;50.150;8.568;2023-05-02T10:33:25;7.60;;;4.47;;
14078;SDS011;7115;50.150;8.568;2023-05-02T10:35:56;7.87;;;5.27;;
14078;SDS011;7115;50.150;8.568;2023-05-02T10:38:23;5.03;;;3.80;;
14078;SDS011;7115;50.150;8.568;2023-05-02T10:40:52;9.00;;;4.30;;
14078;SDS011;7115;50.150;8.568;2023-05-02T10:43:23;3.43;;;2.70;;
14078;SDS011;7115;50.150;8.568;2023-05-02T10:45:54;4.40;;;2.90;;
14078;SDS011;7115;50.150;8.568;2023-05-02T10:48:21;7.20;;;3.93;;
14078;SDS011;7115;50.150;8.568;2023-05-02T10:50:50;7.90;;;4.50;;
14078;SDS011;7115;50.150;8.568;2023-05-02T10:56:14;6.93;;;4.10;;
14078;SDS011;7115;50.150;8.568;2023-05-02T10:58:43;6.53;;;3.27;;
14078;SDS011;7115;50.150;8.568;2023-05-02T11:04:05;4.03;;;3.00;;
14078;SDS011;7115;50.150;8.568;2023-05-02T11:06:33;4.73;;;3.50;;
14078;SDS011;7115;50.150;8.568;2023-05-02T11:11:58;5.20;;;3.23;;
14078;SDS011;7115;50.150;8.568;2023-05-02T11:14:45;4.87;;;3.43;;
14078;SDS011;7115;50.150;8.568;2023-05-02T11:17:15;5.37;;;4.07;;
14078;SDS011;7115;50.150;8.568;2023-05-02T11:22:49;5.23;;;3.07;;
14078;SDS011;7115;50.150;8.568;2023-05-02T11:25:29;8.03;;;3.33;;
14078;SDS011;7115;50.150;8.568;2023-05-02T11:28:04;4.50;;;2.80;;
14078;SDS011;7115;50.150;8.568;2023-05-02T11:30:39;4.60;;;3.20;;
14078;SDS011;7115;50.150;8.568;2023-05-02T11:33:13;5.00;;;3.23;;
14078;SDS011;7115;50.150;8.568;2023-05-02T11:35:43;5.00;;;3.00;;
14078;SDS011;7115;50.150;8.568;2023-05-02T11:38:12;5.10;;;2.90;;
14078;SDS011;7115;50.150;8.568;2023-05-02T11:40:50;3.90;;;2.73;;
14078;SDS011;7115;50.150;8.568;2023-05-02T11:43:22;3.53;;;2.73;;
14078;SDS011;7115;50.150;8.568;2023-05-02T11:45:56;3.60;;;2.30;;
14078;SDS011;7115;50.150;8.568;2023-05-02T11:48:26;5.13;;;2.83;;
14078;SDS011;7115;50.150;8.568;2023-05-02T11:50:54;4.37;;;2.67;;
14078;SDS011;7115;50.150;8.568;2023-05-02T11:53:23;5.47;;;3.30;;
14078;SDS011;7115;50.150;8.568;2023-05-02T11:55:51;4.57;;;2.37;;
14078;SDS011;7115;50.150;8.568;2023-05-02T11:58:20;4.53;;;2.77;;
14078;SDS011;7115;50.150;8.568;2023-05-02T12:00:48;4.20;;;2.93;;
14078;SDS011;7115;50.150;8.568;2023-05-02T12:03:23;5.23;;;2.80;;
14078;SDS011;7115;50.150;8.568;2023-05-02T12:05:54;4.80;;;2.53;;
14078;SDS011;7115;50.150;8.568;2023-05-02T12:08:23;5.80;;;2.70;;
14078;SDS011;7115;50.150;8.568;2023-05-02T12:10:54;3.30;;;2.60;;
14078;SDS011;7115;50.150;8.568;2023-05-02T12:13:22;3.50;;;2.33;;
14078;SDS011;7115;50.150;8.568;2023-05-02T12:15:50;3.78;;;2.63;;
14078;SDS011;7115;50.150;8.568;2023-05-02T12:18:19;4.10;;;2.80;;
14078;SDS011;7115;50.150;8.568;2023-05-02T12:20:50;4.77;;;3.30;;
14078;SDS011;7115;50.150;8.568;2023-05-02T12:23:19;4.23;;;2.87;;
14078;SDS011;7115;50.150;8.568;2023-05-02T12:25:47;4.53;;;3.23;;
14078;SDS011;7115;50.150;8.568;2023-05-02T12:28:15;3.20;;;2.60;;
14078;SDS011;7115;50.150;8.568;2023-05-02T12:30:43;5.27;;;3.37;;
14078;SDS011;7115;50.150;8.568;2023-05-02T12:33:12;4.97;;;3.10;;
14078;SDS011;7115;50.150;8.568;2023-05-02T12:35:39;4.60;;;2.70;;
14078;SDS011;7115;50.150;8.568;2023-05-02T12:38:08;4.60;;;3.00;;
14078;SDS011;7115;50.150;8.568;2023-05-02T12:40:37;4.07;;;3.30;;
14078;SDS011;7115;50.150;8.568;2023-05-02T12:43:05;4.90;;;3.40;;
14078;SDS011;7115;50.150;8.568;2023-05-02T12:45:35;4.13;;;2.90;;
14078;SDS011;7115;50.150;8.568;2023-05-02T12:48:16;5.00;;;3.30;;
14078;SDS011;7115;50.150;8.568;2023-05-02T12:50:47;3.70;;;2.30;;
14078;SDS011;7115;50.150;8.568;2023-05-02T12:53:16;2.97;;;1.90;;
14078;SDS011;7115;50.150;8.568;2023-05-02T12:55:43;5.10;;;2.90;;
14078;SDS011;7115;50.150;8.568;2023-05-02T12:58:10;2.63;;;2.23;;
14078;SDS011;7115;50.150;8.568;2023-05-02T13:00:42;3.03;;;2.40;;
14078;SDS011;7115;50.150;8.568;2023-05-02T13:03:12;5.40;;;2.67;;
14078;SDS011;7115;50.150;8.568;2023-05-02T13:05:40;5.27;;;3.30;;
14078;SDS011;7115;50.150;8.568;2023-05-02T13:08:07;3.07;;;2.63;;
14078;SDS011;7115;50.150;8.568;2023-05-02T13:10:36;6.00;;;2.67;;
14078;SDS011;7115;50.150;8.568;2023-05-02T13:13:02;5.93;;;3.10;;
14078;SDS011;7115;50.150;8.568;2023-05-02T13:15:29;3.40;;;2.70;;
14078;SDS011;7115;50.150;8.568;2023-05-02T13:17:57;4.30;;;2.57;;
14078;SDS011;7115;50.150;8.568;2023-05-02T13:20:24;4.00;;;3.00;;
14078;SDS011;7115;50.150;8.568;2023-05-02T13:22:51;3.03;;;2.53;;
14078;SDS011;7115;50.150;8.568;2023-05-02T13:25:18;5.07;;;3.00;;
14078;SDS011;7115;50.150;8.568;2023-05-02T13:27:47;4.27;;;2.90;;
14078;SDS011;7115;50.150;8.568;2023-05-02T13:30:14;4.20;;;2.70;;
14078;SDS011;7115;50.150;8.568;2023-05-02T13:32:41;4.77;;;3.03;;
14078;SDS011;7115;50.150;8.568;2023-05-02T13:35:08;5.07;;;3.00;;
14078;SDS011;7115;50.150;8.568;2023-05-02T13:37:38;3.40;;;2.70;;
14078;SDS011;7115;50.150;8.568;2023-05-02T13:40:07;3.80;;;2.40;;
14078;SDS011;7115;50.150;8.568;2023-05-02T13:42:34;6.77;;;2.67;;
14078;SDS011;7115;50.150;8.568;2023-05-02T13:45:03;3.90;;;2.40;;
14078;SDS011;7115;50.150;8.568;2023-05-02T13:47:31;3.87;;;2.67;;
14078;SDS011;7115;50.150;8.568;2023-05-02T13:49:59;3.20;;;2.20;;
14078;SDS011;7115;50.150;8.568;2023-05-02T13:52:26;3.87;;;2.63;;
14078;SDS011;7115;50.150;8.568;2023-05-02T13:54:53;5.20;;;3.47;;
14078;SDS011;7115;50.150;8.568;2023-05-02T13:57:20;6.60;;;4.87;;
14078;SDS011;7115;50.150;8.568;2023-05-02T13:59:46;6.70;;;4.30;;
14078;SDS011;7115;50.150;8.568;2023-05-02T14:02:15;7.63;;;4.70;;
14078;SDS011;7115;50.150;8.568;2023-05-02T14:04:42;6.60;;;4.67;;
14078;SDS011;7115;50.150;8.568;2023-05-02T14:07:09;7.30;;;4.10;;
14078;SDS011;7115;50.150;8.568;2023-05-02T14:09:36;5.10;;;4.17;;
14078;SDS011;7115;50.150;8.568;2023-05-02T14:12:03;4.93;;;3.80;;
14078;SDS011;7115;50.150;8.568;2023-05-02T14:14:30;6.03;;;3.77;;
14078;SDS011;7115;50.150;8.568;2023-05-02T14:16:57;4.77;;;3.90;;
14078;SDS011;7115;50.150;8.568;2023-05-02T14:19:26;5.03;;;3.70;;
14078;SDS011;7115;50.150;8.568;2023-05-02T14:21:53;5.23;;;3.70;;
14078;SDS011;7115;50.150;8.568;2023-05-02T14:24:20;5.60;;;3.83;;
14078;SDS011;7115;50.150;8.568;2023-05-02T14:26:46;4.60;;;3.70;;
14078;SDS011;7115;50.150;8.568;2023-05-02T14:29:13;4.13;;;3.30;;
14078;SDS011;7115;50.150;8.568;2023-05-02T14:31:40;4.17;;;3.50;;
14078;SDS011;7115;50.150;8.568;2023-05-02T14:34:07;4.10;;;3.33;;
14078;SDS011;7115;50.150;8.568;2023-05-02T14:36:35;4.23;;;3.03;;
14078;SDS011;7115;50.150;8.568;2023-05-02T14:39:02;8.83;;;4.27;;
14078;SDS011;7115;50.150;8.568;2023-05-02T14:41:29;6.07;;;3.70;;
14078;SDS011;7115;50.150;8.568;2023-05-02T14:43:56;4.67;;;3.30;;
14078;SDS011;7115;50.150;8.568;2023-05-02T14:46:23;3.97;;;3.50;;
14078;SDS011;7115;50.150;8.568;2023-05-02T14:48:51;6.63;;;3.90;;
14078;SDS011;7115;50.150;8.568;2023-05-02T14:51:18;5.43;;;4.23;;
14078;SDS011;7115;50.150;8.568;2023-05-02T14:53:47;5.63;;;4.20;;
14078;SDS011;7115;50.150;8.568;2023-05-02T14:56:15;8.13;;;3.97;;
14078;SDS011;7115;50.150;8.568;2023-05-02T14:58:43;5.40;;;4.18;;
14078;SDS011;7115;50.150;8.568;2023-05-02T15:01:14;5.07;;;3.93;;
14078;SDS011;7115;50.150;8.568;2023-05-02T15:03:42;5.27;;;3.57;;
14078;SDS011;7115;50.150;8.568;2023-05-02T15:06:30;9.03;;;4.03;;
14078;SDS011;7115;50.150;8.568;2023-05-02T15:08:58;5.73;;;4.53;;
14078;SDS011;7115;50.150;8.568;2023-05-02T15:11:25;5.93;;;4.23;;